createdAt,value
2023-01-19T00:02:18.763Z,96.56
2023-01-19T00:04:50.863Z,96.52
2023-01-19T00:07:23.072Z,96.43
2023-01-19T00:09:55.027Z,96.59
2023-01-19T00:12:27.721Z,96.43
2023-01-19T00:14:59.577Z,96.49
2023-01-19T00:17:31.918Z,96.35
2023-01-19T00:20:04.360Z,96.48
2023-01-19T00:22:36.673Z,96.24
2023-01-19T00:25:09.981Z,96.20
2023-01-19T00:27:42.608Z,96.45
2023-01-19T00:30:16.305Z,96.34
2023-01-19T00:32:48.551Z,96.21
2023-01-19T00:35:20.667Z,96.15
2023-01-19T00:37:52.791Z,96.10
2023-01-19T00:40:25.021Z,96.09
2023-01-19T00:42:58.661Z,96.15
2023-01-19T00:45:30.842Z,96.04
2023-01-19T00:48:02.881Z,95.92
2023-01-19T00:50:35.472Z,95.95
2023-01-19T00:53:07.508Z,96.06
2023-01-19T00:55:39.294Z,95.84
2023-01-19T00:58:11.152Z,96.03
2023-01-19T01:00:43.258Z,95.94
2023-01-19T01:03:15.446Z,95.91
2023-01-19T01:05:47.234Z,95.83
2023-01-19T01:08:19.016Z,95.77
2023-01-19T01:10:51.248Z,95.64
2023-01-19T01:13:26.190Z,95.85
2023-01-19T01:15:59.849Z,95.83
2023-01-19T01:18:31.614Z,95.67
2023-01-19T01:21:07.597Z,95.68
2023-01-19T01:23:39.542Z,95.70
2023-01-19T01:26:11.532Z,95.71
2023-01-19T01:28:43.321Z,95.72
2023-01-19T01:31:15.312Z,95.62
2023-01-19T01:33:47.135Z,95.68
2023-01-19T01:36:20.841Z,95.60
2023-01-19T01:38:52.698Z,95.52
2023-01-19T01:41:26.024Z,95.59
2023-01-19T01:44:01.868Z,95.46
2023-01-19T01:46:34.132Z,95.49
2023-01-19T01:49:07.449Z,95.53
2023-01-19T01:51:42.154Z,95.67
2023-01-19T01:54:19.239Z,95.73
2023-01-19T01:56:53.316Z,95.57
2023-01-19T01:59:26.869Z,95.46
2023-01-19T02:02:18.140Z,95.67
2023-01-19T02:04:54.256Z,95.60
2023-01-19T02:07:49.234Z,95.54
2023-01-19T02:10:39.015Z,95.55
2023-01-19T02:13:21.015Z,95.61
2023-01-19T02:15:54.299Z,95.62
2023-01-19T02:18:27.840Z,95.68
2023-01-19T02:21:05.555Z,95.56
2023-01-19T02:23:41.701Z,95.66
2023-01-19T02:26:16.063Z,95.74
2023-01-19T02:28:50.568Z,95.60
2023-01-19T02:31:22.606Z,95.50
2023-01-19T02:33:55.753Z,95.47
2023-01-19T02:36:29.922Z,95.47
2023-01-19T02:39:02.708Z,95.42
2023-01-19T02:41:39.155Z,95.31
2023-01-19T02:44:12.041Z,95.26
2023-01-19T02:46:43.812Z,95.29
2023-01-19T02:49:15.931Z,95.35
2023-01-19T02:51:47.689Z,95.31
2023-01-19T02:54:35.037Z,95.30
2023-01-19T02:57:17.690Z,95.31
2023-01-19T03:00:01.135Z,95.10
2023-01-19T03:02:40.618Z,95.08
2023-01-19T03:05:23.105Z,95.22
2023-01-19T03:08:01.340Z,95.24
2023-01-19T03:10:37.891Z,95.13
2023-01-19T03:13:14.440Z,95.08
2023-01-19T03:15:50.440Z,95.15
2023-01-19T03:18:24.499Z,95.22
2023-01-19T03:20:59.035Z,95.10
2023-01-19T03:23:33.439Z,95.16
2023-01-19T03:26:06.552Z,95.27
2023-01-19T03:28:39.705Z,95.09
2023-01-19T03:31:14.199Z,95.19
2023-01-19T03:33:48.947Z,95.30
2023-01-19T03:36:22.896Z,95.16
2023-01-19T03:38:55.673Z,95.22
2023-01-19T03:41:29.199Z,95.25
2023-01-19T03:44:01.737Z,94.96
2023-01-19T03:46:34.148Z,95.11
2023-01-19T03:49:06.181Z,95.02
2023-01-19T03:51:39.929Z,95.06
2023-01-19T03:54:12.886Z,95.00
2023-01-19T03:56:44.958Z,94.93
2023-01-19T03:59:17.804Z,94.86
2023-01-19T04:01:49.765Z,94.95
2023-01-19T04:04:21.605Z,94.87
2023-01-19T04:06:53.830Z,94.75
2023-01-19T04:09:25.949Z,94.69
2023-01-19T04:11:58.026Z,94.71
2023-01-19T04:14:29.812Z,94.83
2023-01-19T04:17:01.656Z,94.78
2023-01-19T04:19:33.733Z,94.83
2023-01-19T04:22:05.699Z,94.87
2023-01-19T04:24:37.545Z,95.02
2023-01-19T04:27:09.351Z,94.93
2023-01-19T04:29:41.138Z,94.94
2023-01-19T04:32:14.144Z,94.80
2023-01-19T04:34:46.349Z,94.87
2023-01-19T04:37:18.208Z,94.79
2023-01-19T04:39:50.200Z,94.84
2023-01-19T04:42:22.365Z,94.84
2023-01-19T04:44:54.133Z,94.88
2023-01-19T04:47:25.950Z,94.69
2023-01-19T04:49:57.884Z,94.85
2023-01-19T04:52:35.686Z,94.71
2023-01-19T04:55:09.498Z,94.70
2023-01-19T04:57:41.318Z,94.66
2023-01-19T05:00:15.408Z,94.76
2023-01-19T05:02:45.753Z,94.52
2023-01-19T05:05:18.430Z,94.71
2023-01-19T05:07:50.502Z,94.73
2023-01-19T05:10:22.333Z,94.61
2023-01-19T05:12:54.182Z,94.63
2023-01-19T05:15:26.088Z,94.59
2023-01-19T05:17:58.680Z,94.55
2023-01-19T05:20:30.781Z,94.70
2023-01-19T05:23:02.928Z,94.62
2023-01-19T05:25:35.491Z,94.75
2023-01-19T05:28:07.709Z,94.53
2023-01-19T05:30:39.651Z,94.52
2023-01-19T05:33:11.475Z,94.78
2023-01-19T05:35:43.514Z,94.67
2023-01-19T05:38:20.831Z,94.88
2023-01-19T05:40:57.344Z,94.80
2023-01-19T05:43:29.158Z,94.80
2023-01-19T05:46:01.030Z,94.98
2023-01-19T05:48:32.865Z,94.81
2023-01-19T05:51:05.184Z,94.85
2023-01-19T05:53:37.099Z,94.90
2023-01-19T05:56:10.877Z,95.00
2023-01-19T05:58:42.777Z,95.01
2023-01-19T06:01:14.670Z,94.96
2023-01-19T06:03:47.488Z,95.04
2023-01-19T06:06:19.478Z,95.05
2023-01-19T06:08:51.340Z,95.10
2023-01-19T06:11:23.196Z,95.00
2023-01-19T06:13:55.481Z,95.25
2023-01-19T06:19:23.509Z,95.31
2023-01-19T06:21:55.595Z,95.18
2023-01-19T06:24:28.011Z,95.35
2023-01-19T06:27:00.488Z,95.21
2023-01-19T06:29:32.683Z,95.39
2023-01-19T06:32:04.655Z,95.37
2023-01-19T06:34:36.382Z,95.39
2023-01-19T06:37:12.318Z,95.43
2023-01-19T06:39:45.617Z,95.58
2023-01-19T06:42:17.553Z,95.61
2023-01-19T06:44:49.429Z,95.60
2023-01-19T06:47:21.528Z,95.38
2023-01-19T06:49:53.435Z,95.46
2023-01-19T06:52:25.372Z,95.51
2023-01-19T06:54:57.164Z,95.49
2023-01-19T06:57:28.915Z,95.51
2023-01-19T07:00:02.154Z,95.30
2023-01-19T07:02:34.081Z,95.22
2023-01-19T07:05:07.111Z,95.20
2023-01-19T07:07:40.065Z,95.19
2023-01-19T07:10:15.813Z,95.00
2023-01-19T07:12:47.779Z,95.22
2023-01-19T07:15:22.981Z,95.19
2023-01-19T07:17:54.767Z,95.17
2023-01-19T07:20:26.562Z,95.27
2023-01-19T07:23:00.199Z,95.31
2023-01-19T07:25:32.430Z,95.21
2023-01-19T07:28:04.627Z,95.15
2023-01-19T07:30:36.613Z,95.12
2023-01-19T07:33:08.610Z,95.03
2023-01-19T07:35:40.622Z,95.07
2023-01-19T07:38:12.475Z,94.94
2023-01-19T07:40:44.500Z,94.81
2023-01-19T07:43:16.686Z,94.76
2023-01-19T07:45:48.456Z,94.76
2023-01-19T07:48:20.333Z,94.85
2023-01-19T07:50:52.112Z,94.79
2023-01-19T07:53:23.901Z,94.78
2023-01-19T07:55:58.224Z,94.81
2023-01-19T07:58:29.967Z,94.75
2023-01-19T08:01:02.143Z,94.78
2023-01-19T08:03:34.598Z,94.88
2023-01-19T08:06:07.218Z,94.63
2023-01-19T08:08:39.196Z,94.69
2023-01-19T08:11:11.131Z,94.54
2023-01-19T08:13:43.379Z,94.48
2023-01-19T08:16:15.630Z,94.64
2023-01-19T08:18:47.503Z,94.53
2023-01-19T08:21:19.546Z,94.43
2023-01-19T08:23:55.916Z,94.39
2023-01-19T08:26:32.355Z,94.29
2023-01-19T08:29:06.899Z,94.36
2023-01-19T08:31:39.919Z,94.35
2023-01-19T08:34:12.214Z,94.42
2023-01-19T08:36:44.350Z,94.45
2023-01-19T08:39:18.047Z,94.33
2023-01-19T08:41:50.004Z,94.41
2023-01-19T08:44:22.119Z,94.09
2023-01-19T08:46:54.405Z,94.22
2023-01-19T08:49:26.539Z,94.06
2023-01-19T08:51:58.496Z,94.01
2023-01-19T08:54:30.574Z,94.02
2023-01-19T08:57:02.802Z,94.06
2023-01-19T08:59:34.861Z,94.07
2023-01-19T09:02:06.826Z,94.13
2023-01-19T09:04:38.870Z,94.14
2023-01-19T09:07:11.064Z,94.18
2023-01-19T09:09:43.601Z,94.13
2023-01-19T09:12:16.063Z,93.73
2023-01-19T09:14:48.001Z,93.86
2023-01-19T09:17:20.066Z,93.51
2023-01-19T09:19:52.146Z,93.69
2023-01-19T09:22:24.321Z,93.37
2023-01-19T09:24:56.315Z,93.22
2023-01-19T09:27:28.556Z,93.42
2023-01-19T09:30:00.474Z,93.43
2023-01-19T09:32:32.300Z,93.22
2023-01-19T09:35:04.330Z,93.35
2023-01-19T09:37:36.176Z,93.50
2023-01-19T09:40:10.235Z,93.40
2023-01-19T09:42:44.977Z,93.29
2023-01-19T09:45:20.116Z,93.19
2023-01-19T09:47:52.729Z,93.51
2023-01-19T09:50:28.747Z,93.38
2023-01-19T09:53:05.599Z,92.88
2023-01-19T09:55:39.486Z,93.16
2023-01-19T09:58:16.383Z,93.26
2023-01-19T10:00:51.943Z,93.24
2023-01-19T10:03:25.231Z,93.23
2023-01-19T10:06:03.648Z,93.29
2023-01-19T10:08:42.485Z,93.13
2023-01-19T10:11:34.523Z,93.23
2023-01-19T10:14:19.160Z,93.30
2023-01-19T10:16:54.515Z,93.31
2023-01-19T10:19:31.031Z,93.13
2023-01-19T10:22:09.146Z,92.80
2023-01-19T10:24:43.011Z,92.97
2023-01-19T10:27:18.926Z,92.90
2023-01-19T10:29:51.079Z,93.04
2023-01-19T10:32:24.085Z,92.97
2023-01-19T10:34:58.432Z,92.95
2023-01-19T10:37:34.882Z,92.89
2023-01-19T10:40:28.017Z,92.98
2023-01-19T10:43:00.823Z,93.05
2023-01-19T10:45:36.888Z,93.19
2023-01-19T10:48:13.025Z,93.10
2023-01-19T10:50:44.832Z,93.19
2023-01-19T10:53:25.805Z,93.04
2023-01-19T10:58:54.870Z,93.09
2023-01-19T11:01:28.329Z,92.71
2023-01-19T11:04:05.934Z,92.75
2023-01-19T11:06:38.053Z,92.94
2023-01-19T11:09:19.513Z,92.85
2023-01-19T11:11:53.257Z,92.69
2023-01-19T11:14:26.404Z,92.72
2023-01-19T11:16:59.296Z,92.25
2023-01-19T11:19:33.097Z,92.46
2023-01-19T11:22:21.597Z,92.29
2023-01-19T11:24:53.708Z,92.67
2023-01-19T11:27:25.583Z,92.50
2023-01-19T11:30:05.459Z,92.53
2023-01-19T11:32:37.591Z,92.25
2023-01-19T11:35:34.457Z,92.05
2023-01-19T11:38:16.952Z,91.98
2023-01-19T11:40:54.382Z,92.41
2023-01-19T11:43:43.297Z,92.33
2023-01-19T11:46:21.291Z,92.42
2023-01-19T11:48:58.114Z,92.14
2023-01-19T11:51:35.382Z,92.08
2023-01-19T11:54:15.020Z,92.16
2023-01-19T11:56:48.517Z,92.21
2023-01-19T11:59:21.274Z,91.80
2023-01-19T12:01:57.922Z,91.67
2023-01-19T12:04:32.324Z,91.77
2023-01-19T12:07:07.570Z,91.74
2023-01-19T12:09:44.344Z,91.95
2023-01-19T12:12:22.608Z,91.90
2023-01-19T12:14:58.681Z,91.69
2023-01-19T12:17:33.515Z,91.72
2023-01-19T12:20:15.137Z,91.82
2023-01-19T12:22:50.833Z,91.85
2023-01-19T12:25:26.229Z,91.81
2023-01-19T12:27:59.437Z,91.58
2023-01-19T12:30:32.356Z,91.50
2023-01-19T12:33:38.035Z,91.48
2023-01-19T12:36:14.291Z,91.55
2023-01-19T12:38:49.017Z,91.50
2023-01-19T12:41:29.971Z,91.47
2023-01-19T12:44:24.181Z,91.59
2023-01-19T12:47:03.472Z,91.21
2023-01-19T12:49:40.915Z,91.06
2023-01-19T12:52:34.457Z,91.13
2023-01-19T12:55:23.231Z,91.16
2023-01-19T12:58:01.510Z,91.17
2023-01-19T13:00:41.354Z,91.27
2023-01-19T13:03:53.333Z,90.97
2023-01-19T13:07:05.937Z,91.04
2023-01-19T13:09:38.579Z,91.16
2023-01-19T13:12:27.834Z,91.02
2023-01-19T13:15:35.032Z,90.48
2023-01-19T13:18:08.084Z,90.99
2023-01-19T13:20:48.005Z,91.05
2023-01-19T13:23:23.222Z,91.01
2023-01-19T13:26:00.147Z,90.82
2023-01-19T13:28:39.319Z,90.33
2023-01-19T13:31:12.387Z,90.40
2023-01-19T13:33:51.167Z,90.54
2023-01-19T13:36:27.380Z,90.57
2023-01-19T13:39:01.335Z,90.35
2023-01-19T13:41:36.734Z,90.28
2023-01-19T13:44:11.405Z,90.50
2023-01-19T13:46:44.045Z,90.43
2023-01-19T13:49:20.541Z,90.58
2023-01-19T13:54:54.481Z,90.09
2023-01-19T13:57:27.974Z,89.80
2023-01-19T14:00:19.077Z,88.94
2023-01-19T14:03:02.589Z,89.53
2023-01-19T14:05:36.211Z,89.89
2023-01-19T14:08:15.465Z,89.85
2023-01-19T14:10:48.426Z,89.92
2023-01-19T14:13:22.418Z,89.64
2023-01-19T14:15:56.660Z,89.69
2023-01-19T14:18:31.353Z,89.64
2023-01-19T14:21:06.299Z,89.67
2023-01-19T14:23:49.573Z,89.71
2023-01-19T14:26:47.482Z,89.73
2023-01-19T14:29:26.313Z,89.74
2023-01-19T14:32:13.876Z,89.78
2023-01-19T14:34:47.556Z,89.92
2023-01-19T14:37:22.277Z,89.91
2023-01-19T14:39:56.303Z,89.95
2023-01-19T14:42:30.349Z,90.01
2023-01-19T14:45:04.307Z,90.21
2023-01-19T14:47:41.410Z,90.24
2023-01-19T14:50:22.047Z,89.95
2023-01-19T14:52:57.115Z,90.03
2023-01-19T14:55:35.058Z,89.95
2023-01-19T14:58:13.110Z,89.85
2023-01-19T15:00:46.198Z,89.97
2023-01-19T15:03:18.690Z,90.05
2023-01-19T15:05:52.001Z,89.98
2023-01-19T15:08:28.863Z,89.87
2023-01-19T15:11:01.205Z,89.95
2023-01-19T15:13:33.029Z,90.18
2023-01-19T15:16:05.412Z,90.23
2023-01-19T15:18:38.717Z,90.39
2023-01-19T15:21:14.316Z,90.27
2023-01-19T15:23:46.096Z,90.36
2023-01-19T15:26:19.443Z,90.31
2023-01-19T15:28:51.511Z,90.33
2023-01-19T15:31:25.065Z,90.33
2023-01-19T15:33:57.296Z,90.38
2023-01-19T15:36:29.544Z,90.35
2023-01-19T15:39:01.306Z,90.46
2023-01-19T15:41:33.764Z,90.53
2023-01-19T15:44:06.377Z,90.37
2023-01-19T15:46:38.597Z,90.56
2023-01-19T15:49:10.447Z,90.29
2023-01-19T15:51:42.409Z,90.33
2023-01-19T15:54:15.631Z,90.28
2023-01-19T15:56:47.727Z,90.28
2023-01-19T15:59:19.641Z,90.25
2023-01-19T16:01:52.028Z,90.23
2023-01-19T16:04:24.140Z,90.38
2023-01-19T16:06:56.376Z,90.44
2023-01-19T16:09:28.143Z,90.39
2023-01-19T16:12:00.523Z,90.31
2023-01-19T16:14:32.646Z,90.23
2023-01-19T16:17:05.938Z,90.30
2023-01-19T16:19:37.830Z,90.24
2023-01-19T16:22:09.781Z,90.22
2023-01-19T16:24:41.619Z,90.29
2023-01-19T16:27:13.676Z,90.38
2023-01-19T16:29:45.589Z,90.46
2023-01-19T16:32:18.129Z,90.22
2023-01-19T16:34:49.961Z,90.13
2023-01-19T16:37:22.384Z,90.32
2023-01-19T16:39:54.250Z,90.20
2023-01-19T16:42:26.112Z,90.32
2023-01-19T16:44:58.196Z,90.35
2023-01-19T16:47:30.188Z,90.22
2023-01-19T16:50:02.146Z,90.22
2023-01-19T16:52:34.259Z,90.33
2023-01-19T16:55:09.500Z,90.49
2023-01-19T16:57:41.858Z,90.37
2023-01-19T17:00:15.547Z,90.42
2023-01-19T17:02:47.421Z,90.36
2023-01-19T17:05:19.489Z,90.52
2023-01-19T17:07:51.449Z,90.64
2023-01-19T17:10:23.566Z,90.50
2023-01-19T17:12:55.429Z,90.44
2023-01-19T17:15:27.549Z,90.36
2023-01-19T17:17:59.853Z,90.37
2023-01-19T17:20:33.797Z,90.39
2023-01-19T17:23:04.405Z,90.57
2023-01-19T17:25:36.321Z,90.43
2023-01-19T17:28:08.439Z,90.45
2023-01-19T17:30:40.345Z,90.57
2023-01-19T17:33:12.849Z,90.55
2023-01-19T17:35:46.825Z,90.63
2023-01-19T17:38:19.379Z,90.52
2023-01-19T17:40:51.247Z,90.46
2023-01-19T17:43:23.464Z,90.53
2023-01-19T17:45:55.367Z,90.40
2023-01-19T17:48:27.736Z,90.48
2023-01-19T17:51:05.986Z,90.67
2023-01-19T17:53:39.070Z,90.63
2023-01-19T17:56:13.036Z,90.79
2023-01-19T17:58:45.579Z,90.85
2023-01-19T18:01:19.313Z,91.16
2023-01-19T18:03:52.893Z,91.00
2023-01-19T18:06:25.160Z,91.07
2023-01-19T18:08:57.546Z,91.04
2023-01-19T18:11:29.953Z,91.22
2023-01-19T18:14:02.274Z,91.24
2023-01-19T18:16:34.310Z,91.45
2023-01-19T18:19:06.394Z,91.30
2023-01-19T18:21:38.908Z,91.34
2023-01-19T18:24:10.905Z,91.42
2023-01-19T18:26:42.874Z,91.42
2023-01-19T18:29:16.692Z,91.56
2023-01-19T18:31:48.804Z,91.71
2023-01-19T18:34:20.901Z,91.58
2023-01-19T18:36:52.688Z,91.80
2023-01-19T18:39:24.695Z,91.65
2023-01-19T18:41:56.559Z,91.73
2023-01-19T18:44:28.994Z,91.85
2023-01-19T18:47:00.857Z,92.14
2023-01-19T18:49:32.737Z,92.11
2023-01-19T18:52:05.061Z,92.28
2023-01-19T18:54:37.007Z,92.52
2023-01-19T18:57:08.775Z,92.42
2023-01-19T18:59:42.621Z,92.54
2023-01-19T19:02:14.977Z,92.68
2023-01-19T19:04:47.428Z,92.81
2023-01-19T19:07:19.440Z,92.97
2023-01-19T19:09:51.528Z,93.26
2023-01-19T19:12:23.519Z,93.51
2023-01-19T19:14:55.654Z,94.31
2023-01-19T19:17:27.696Z,93.91
2023-01-19T19:19:59.911Z,93.43
2023-01-19T19:22:32.854Z,93.58
2023-01-19T19:25:04.931Z,93.35
2023-01-19T19:27:37.120Z,93.39
2023-01-19T19:30:11.363Z,93.41
2023-01-19T19:32:43.673Z,93.29
2023-01-19T19:35:18.731Z,93.39
2023-01-19T19:37:51.595Z,93.31
2023-01-19T19:40:23.955Z,93.32
2023-01-19T19:42:58.406Z,93.45
2023-01-19T19:45:30.872Z,93.57
2023-01-19T19:48:02.777Z,93.61
2023-01-19T19:50:37.066Z,93.53
2023-01-19T19:53:08.950Z,93.78
2023-01-19T19:55:41.479Z,93.79
2023-01-19T19:58:13.470Z,93.73
2023-01-19T20:00:46.022Z,93.66
2023-01-19T20:03:17.840Z,93.68
2023-01-19T20:05:49.820Z,93.72
2023-01-19T20:08:21.746Z,93.68
2023-01-19T20:10:53.579Z,93.71
2023-01-19T20:13:25.417Z,93.77
2023-01-19T20:15:57.342Z,94.21
2023-01-19T20:18:29.446Z,94.32
2023-01-19T20:21:01.404Z,94.13
2023-01-19T20:23:33.846Z,94.52
2023-01-19T20:26:09.352Z,94.44
2023-01-19T20:28:41.648Z,95.16
2023-01-19T20:31:16.965Z,94.83
2023-01-19T20:33:49.529Z,95.24
2023-01-19T20:36:22.150Z,95.35
2023-01-19T20:38:55.325Z,95.20
2023-01-19T20:41:28.317Z,95.13
2023-01-19T20:44:00.284Z,95.59
2023-01-19T20:46:32.276Z,95.58
2023-01-19T20:49:04.214Z,95.88
2023-01-19T20:51:37.519Z,95.80
2023-01-19T20:54:10.903Z,96.22
2023-01-19T20:56:43.283Z,96.14
2023-01-19T20:59:15.641Z,95.76
2023-01-19T21:01:48.703Z,95.65
2023-01-19T21:04:22.433Z,96.20
2023-01-19T21:06:54.408Z,96.54
2023-01-19T21:09:26.256Z,96.32
2023-01-19T21:11:58.325Z,96.45
2023-01-19T21:14:30.211Z,96.76
2023-01-19T21:17:02.340Z,96.71
2023-01-19T21:19:34.195Z,96.39
2023-01-19T21:22:06.238Z,96.31
2023-01-19T21:24:38.058Z,96.41
2023-01-19T21:27:10.694Z,96.41
2023-01-19T21:29:42.473Z,96.47
2023-01-19T21:32:15.281Z,96.45
2023-01-19T21:34:47.091Z,96.64
2023-01-19T21:37:19.097Z,96.56
2023-01-19T21:39:50.856Z,96.66
2023-01-19T21:42:22.781Z,96.83
2023-01-19T21:44:54.645Z,96.70
2023-01-19T21:47:26.737Z,96.78
2023-01-19T21:49:58.569Z,96.67
2023-01-19T21:52:30.593Z,96.83
2023-01-19T21:55:02.389Z,96.91
2023-01-19T21:57:34.507Z,97.00
2023-01-19T22:00:08.069Z,97.29
2023-01-19T22:02:40.589Z,97.05
2023-01-19T22:05:13.861Z,97.33
2023-01-19T22:07:46.036Z,97.39
2023-01-19T22:10:18.646Z,97.10
2023-01-19T22:12:50.780Z,97.09
2023-01-19T22:15:22.644Z,97.38
2023-01-19T22:17:54.666Z,97.45
2023-01-19T22:20:26.427Z,97.43
2023-01-19T22:22:58.476Z,97.38
2023-01-19T22:25:30.670Z,97.27
2023-01-19T22:28:02.699Z,97.18
2023-01-19T22:30:34.639Z,97.50
2023-01-19T22:33:06.891Z,97.86
2023-01-19T22:35:38.739Z,98.20
2023-01-19T22:38:11.001Z,97.75
2023-01-19T22:40:42.832Z,97.81
2023-01-19T22:43:14.715Z,97.94
2023-01-19T22:45:46.612Z,98.04
2023-01-19T22:48:18.610Z,97.70
2023-01-19T22:50:50.393Z,97.86
2023-01-19T22:53:22.172Z,98.23
2023-01-19T22:55:53.995Z,98.09
2023-01-19T22:58:25.973Z,98.12
2023-01-19T23:00:57.891Z,98.43
2023-01-19T23:03:30.030Z,98.29
2023-01-19T23:06:06.071Z,98.14
2023-01-19T23:08:38.774Z,98.29
2023-01-19T23:11:13.022Z,98.30
2023-01-19T23:13:45.118Z,98.64
2023-01-19T23:16:17.422Z,98.50
2023-01-19T23:18:49.609Z,98.08
2023-01-19T23:21:23.566Z,98.17
2023-01-19T23:23:55.981Z,98.10
2023-01-19T23:26:28.822Z,98.17
2023-01-19T23:29:02.622Z,97.98
2023-01-19T23:31:36.395Z,98.06
2023-01-19T23:34:10.520Z,98.37
2023-01-19T23:36:41.240Z,98.49
2023-01-19T23:39:16.557Z,98.50
2023-01-19T23:41:49.152Z,98.24
2023-01-19T23:44:21.208Z,98.24
2023-01-19T23:46:53.075Z,98.16
2023-01-19T23:49:25.094Z,98.15
2023-01-19T23:51:56.947Z,98.12
2023-01-19T23:54:28.966Z,97.90
2023-01-19T23:57:00.700Z,97.88
2023-01-19T23:59:32.613Z,97.90
